createdAt,value
2023-01-28T00:07:02.713Z,43.50
2023-01-28T00:17:09.089Z,44.80
2023-01-28T00:27:15.338Z,48.00
2023-01-28T00:37:21.638Z,45.80
2023-01-28T00:47:27.901Z,44.30
2023-01-28T00:57:35.139Z,42.30
2023-01-28T01:07:44.813Z,39.90
2023-01-28T01:17:51.956Z,38.30
2023-01-28T01:27:58.225Z,36.90
2023-01-28T01:38:04.754Z,40.20
2023-01-28T01:48:19.806Z,35.50
2023-01-28T01:58:31.468Z,33.20
2023-01-28T02:08:37.793Z,34.10
2023-01-28T02:18:44.107Z,32.90
2023-01-28T02:29:04.993Z,32.40
2023-01-28T02:39:20.606Z,36.10
2023-01-28T02:49:33.083Z,33.20
2023-01-28T03:00:05.648Z,30.70
2023-01-28T03:10:17.623Z,31.10
2023-01-28T03:20:45.415Z,31.00
2023-01-28T03:31:33.545Z,30.90
2023-01-28T03:41:39.915Z,38.40
2023-01-28T03:51:47.426Z,31.60
2023-01-28T04:01:53.738Z,35.70
2023-01-28T04:12:00.764Z,35.00
2023-01-28T04:22:08.382Z,33.00
2023-01-28T04:32:14.676Z,32.80
2023-01-28T04:42:20.994Z,30.80
2023-01-28T04:52:27.309Z,34.80
2023-01-28T05:02:33.668Z,32.20
2023-01-28T05:12:40.025Z,27.20
2023-01-28T05:22:46.330Z,28.30
2023-01-28T05:32:56.380Z,31.30
2023-01-28T05:43:02.731Z,27.70
2023-01-28T05:53:09.075Z,30.50
2023-01-28T06:03:15.518Z,29.30
2023-01-28T06:13:21.929Z,25.00
2023-01-28T06:23:28.272Z,27.30
2023-01-28T06:33:34.563Z,28.00
2023-01-28T06:43:40.886Z,29.40
2023-01-28T06:53:47.212Z,31.80
2023-01-28T07:03:53.533Z,32.50
2023-01-28T07:13:59.931Z,34.00
2023-01-28T07:24:07.384Z,33.80
2023-01-28T07:34:14.048Z,36.50
2023-01-28T07:44:20.423Z,39.60
2023-01-28T07:54:26.714Z,28.30
2023-01-28T08:04:33.078Z,29.10
2023-01-28T08:14:39.499Z,29.50
2023-01-28T08:24:45.817Z,32.60
2023-01-28T08:34:52.207Z,30.50
2023-01-28T08:44:58.482Z,33.30
2023-01-28T08:55:05.126Z,31.60
2023-01-28T09:05:12.161Z,33.40
2023-01-28T09:15:19.105Z,34.30
2023-01-28T09:25:25.408Z,34.30
2023-01-28T09:35:31.775Z,30.80
2023-01-28T09:45:41.668Z,33.50
2023-01-28T09:55:51.734Z,31.50
2023-01-28T10:05:57.936Z,28.30
2023-01-28T10:16:17.901Z,30.30
2023-01-28T10:26:34.490Z,30.80
2023-01-28T10:36:40.991Z,38.50
2023-01-28T10:46:48.572Z,29.70
2023-01-28T10:57:04.327Z,28.25
2023-01-28T11:07:21.981Z,28.10
2023-01-28T11:17:31.491Z,28.00
2023-01-28T11:27:38.492Z,27.90
2023-01-28T11:37:49.824Z,27.30
2023-01-28T11:48:01.866Z,32.60
2023-01-28T11:58:53.385Z,31.60
2023-01-28T12:09:14.754Z,37.00
2023-01-28T12:19:30.964Z,35.90
2023-01-28T12:29:51.975Z,36.10
2023-01-28T12:40:27.708Z,50.00
2023-01-28T12:50:44.387Z,41.60
2023-01-28T13:00:53.145Z,38.20
2023-01-28T13:11:03.375Z,38.90
2023-01-28T13:21:16.612Z,38.90
2023-01-28T13:31:24.830Z,41.70
2023-01-28T13:41:42.438Z,39.40
2023-01-28T13:51:59.903Z,39.70
2023-01-28T14:02:30.690Z,49.50
2023-01-28T14:12:55.758Z,51.00
2023-01-28T14:23:19.990Z,56.40
2023-01-28T14:33:26.903Z,54.20
2023-01-28T14:43:33.598Z,56.10
2023-01-28T14:53:52.929Z,48.70
2023-01-28T15:03:59.432Z,49.30
2023-01-28T15:14:06.573Z,68.80
2023-01-28T15:24:17.210Z,62.70
2023-01-28T15:34:31.212Z,52.10
2023-01-28T15:44:45.564Z,52.80
2023-01-28T15:54:53.257Z,60.00
2023-01-28T16:05:03.331Z,60.80
2023-01-28T16:15:19.616Z,58.30
2023-01-28T16:25:31.032Z,62.00
2023-01-28T16:36:01.328Z,62.60
2023-01-28T16:46:07.909Z,59.30
2023-01-28T16:56:30.689Z,59.20
2023-01-28T17:06:47.647Z,63.40
2023-01-28T17:16:54.082Z,64.40
2023-01-28T17:27:00.433Z,61.00
2023-01-28T17:37:06.848Z,61.20
2023-01-28T17:47:13.158Z,60.80
2023-01-28T17:57:19.478Z,58.90
2023-01-28T18:07:25.842Z,64.40
2023-01-28T18:17:32.162Z,63.50
2023-01-28T18:27:38.514Z,63.10
2023-01-28T18:37:44.910Z,65.10
2023-01-28T18:47:51.300Z,72.20
2023-01-28T18:57:58.115Z,96.40
2023-01-28T19:08:06.778Z,86.90
2023-01-28T19:18:13.073Z,92.30
2023-01-28T19:28:19.985Z,100.00
2023-01-28T19:38:28.188Z,90.20
2023-01-28T19:48:34.615Z,77.90
2023-01-28T19:58:42.853Z,85.60
2023-01-28T20:08:54.148Z,71.90
2023-01-28T20:19:02.979Z,74.10
2023-01-28T20:29:19.184Z,73.10
2023-01-28T20:39:25.740Z,53.10
2023-01-28T20:49:32.823Z,53.50
2023-01-28T20:59:39.213Z,55.60
2023-01-28T21:09:45.745Z,57.80
2023-01-28T21:19:52.143Z,59.30
2023-01-28T21:29:58.583Z,57.60
2023-01-28T21:40:06.164Z,57.80
2023-01-28T21:50:12.757Z,57.90
2023-01-28T22:00:19.666Z,49.40
2023-01-28T22:10:26.164Z,41.60
2023-01-28T22:20:32.456Z,46.30
2023-01-28T22:30:38.806Z,41.30
2023-01-28T22:40:45.070Z,28.10
2023-01-28T22:50:51.348Z,23.10
2023-01-28T23:00:57.705Z,19.30
2023-01-28T23:11:04.424Z,22.60
2023-01-28T23:21:38.438Z,24.80
2023-01-28T23:31:47.883Z,23.90
2023-01-28T23:41:54.297Z,26.70
2023-01-28T23:52:00.705Z,25.80
